createdAt,value
2023-03-20T00:02:25.791Z,25.11
2023-03-20T00:04:54.540Z,25.15
2023-03-20T00:07:22.876Z,25.21
2023-03-20T00:09:51.966Z,25.27
2023-03-20T00:12:24.811Z,25.32
2023-03-20T00:14:53.455Z,25.37
2023-03-20T00:17:22.610Z,25.44
2023-03-20T00:19:51.365Z,25.49
2023-03-20T00:22:19.666Z,25.55
2023-03-20T00:24:48.460Z,25.64
2023-03-20T00:27:19.005Z,25.71
2023-03-20T00:29:47.504Z,25.77
2023-03-20T00:32:16.444Z,25.84
2023-03-20T00:34:44.968Z,25.90
2023-03-20T00:37:13.571Z,25.99
2023-03-20T00:39:43.173Z,26.03
2023-03-20T00:42:23.202Z,26.07
2023-03-20T00:44:57.000Z,26.12
2023-03-20T00:47:26.796Z,26.16
2023-03-20T00:49:56.826Z,26.25
2023-03-20T00:52:25.863Z,26.32
2023-03-20T00:54:54.238Z,26.38
2023-03-20T00:57:48.578Z,26.46
2023-03-20T01:00:46.931Z,26.57
2023-03-20T01:03:21.603Z,26.66
2023-03-20T01:05:51.197Z,26.73
2023-03-20T01:08:25.816Z,26.81
2023-03-20T01:10:59.687Z,26.88
2023-03-20T01:13:31.265Z,26.97
2023-03-20T01:16:00.564Z,27.03
2023-03-20T01:18:29.369Z,27.09
2023-03-20T01:20:57.652Z,27.18
2023-03-20T01:23:27.575Z,27.24
2023-03-20T01:25:55.944Z,27.32
2023-03-20T01:28:25.728Z,27.43
2023-03-20T01:30:54.156Z,27.55
2023-03-20T01:33:25.066Z,27.68
2023-03-20T01:35:53.779Z,27.80
2023-03-20T01:38:25.400Z,27.94
2023-03-20T01:41:00.314Z,28.08
2023-03-20T01:43:30.097Z,28.19
2023-03-20T01:46:10.708Z,28.34
2023-03-20T01:48:54.523Z,28.46
2023-03-20T01:51:25.255Z,28.56
2023-03-20T01:54:00.427Z,28.63
2023-03-20T01:56:31.921Z,28.71
2023-03-20T01:59:07.931Z,28.76
2023-03-20T02:01:38.292Z,28.82
2023-03-20T02:04:07.903Z,28.88
2023-03-20T02:06:38.287Z,28.92
2023-03-20T02:09:06.649Z,28.99
2023-03-20T02:11:36.347Z,29.04
2023-03-20T02:14:06.329Z,29.08
2023-03-20T02:16:34.721Z,29.12
2023-03-20T02:19:03.800Z,29.19
2023-03-20T02:22:08.943Z,29.26
2023-03-20T02:24:37.244Z,29.34
2023-03-20T02:27:05.531Z,29.40
2023-03-20T02:30:10.865Z,29.47
2023-03-20T02:33:02.619Z,29.57
2023-03-20T02:35:58.724Z,29.64
2023-03-20T02:38:35.716Z,29.71
2023-03-20T02:41:16.784Z,29.79
2023-03-20T02:43:57.174Z,29.86
2023-03-20T02:46:47.388Z,29.93
2023-03-20T02:49:24.563Z,29.99
2023-03-20T02:52:18.213Z,30.07
2023-03-20T02:55:03.470Z,30.16
2023-03-20T02:57:44.075Z,30.26
2023-03-20T03:00:27.560Z,30.34
2023-03-20T03:03:18.576Z,30.43
2023-03-20T03:05:55.484Z,30.52
2023-03-20T03:08:29.603Z,30.61
2023-03-20T03:11:05.329Z,30.69
2023-03-20T03:13:39.000Z,30.77
2023-03-20T03:16:39.431Z,30.87
2023-03-20T03:19:16.700Z,30.97
2023-03-20T03:21:46.786Z,31.04
2023-03-20T03:24:41.152Z,31.14
2023-03-20T03:27:19.197Z,31.22
2023-03-20T03:29:52.438Z,31.31
2023-03-20T03:32:44.802Z,31.39
2023-03-20T03:35:18.751Z,31.50
2023-03-20T03:38:19.278Z,31.60
2023-03-20T03:41:00.424Z,31.67
2023-03-20T03:43:44.234Z,31.77
2023-03-20T03:46:24.505Z,31.84
2023-03-20T03:48:57.743Z,31.94
2023-03-20T03:51:30.597Z,32.02
2023-03-20T03:54:07.896Z,32.12
2023-03-20T03:56:39.908Z,32.19
2023-03-20T03:59:32.222Z,32.26
2023-03-20T04:02:02.391Z,32.34
2023-03-20T04:04:34.029Z,32.43
2023-03-20T04:07:02.723Z,32.49
2023-03-20T04:09:31.331Z,32.56
2023-03-20T04:11:59.689Z,32.63
2023-03-20T04:14:28.394Z,32.71
2023-03-20T04:16:56.669Z,32.78
2023-03-20T04:19:24.959Z,32.84
2023-03-20T04:21:53.271Z,32.93
2023-03-20T04:24:21.577Z,33.01
2023-03-20T04:26:49.952Z,33.08
2023-03-20T04:29:18.374Z,33.14
2023-03-20T04:31:46.993Z,33.25
2023-03-20T04:34:15.419Z,33.34
2023-03-20T04:36:43.729Z,33.44
2023-03-20T04:39:12.243Z,33.54
2023-03-20T04:41:40.685Z,33.64
2023-03-20T04:44:09.108Z,33.75
2023-03-20T04:46:37.411Z,33.86
2023-03-20T04:49:05.730Z,33.93
2023-03-20T04:51:34.076Z,34.03
2023-03-20T04:54:02.351Z,34.13
2023-03-20T04:56:30.652Z,34.24
2023-03-20T04:58:58.948Z,34.32
2023-03-20T05:01:27.280Z,34.41
2023-03-20T05:04:01.561Z,34.49
2023-03-20T05:06:31.192Z,34.52
2023-03-20T05:09:00.511Z,34.51
2023-03-20T05:11:30.013Z,34.49
2023-03-20T05:13:58.327Z,34.42
2023-03-20T05:16:26.990Z,34.39
2023-03-20T05:18:55.346Z,34.43
2023-03-20T05:21:23.664Z,34.45
2023-03-20T05:23:52.241Z,34.42
2023-03-20T05:26:20.529Z,34.41
2023-03-20T05:28:50.984Z,34.45
2023-03-20T05:31:19.340Z,34.54
2023-03-20T05:33:47.638Z,34.61
2023-03-20T05:36:15.949Z,34.69
2023-03-20T05:38:44.554Z,34.79
2023-03-20T05:41:12.857Z,34.88
2023-03-20T05:43:41.157Z,34.98
2023-03-20T05:46:09.650Z,35.06
2023-03-20T05:48:38.034Z,35.12
2023-03-20T05:51:07.239Z,35.17
2023-03-20T05:53:35.629Z,35.20
2023-03-20T05:56:04.289Z,35.24
2023-03-20T05:58:32.860Z,35.29
2023-03-20T06:01:01.534Z,35.33
2023-03-20T06:03:29.973Z,35.34
2023-03-20T06:05:58.640Z,35.38
2023-03-20T06:08:27.086Z,35.29
2023-03-20T06:10:55.512Z,35.20
2023-03-20T06:13:23.983Z,35.21
2023-03-20T06:15:52.297Z,35.17
2023-03-20T06:18:20.932Z,35.20
2023-03-20T06:20:54.711Z,35.22
2023-03-20T06:23:23.151Z,35.29
2023-03-20T06:25:51.707Z,35.36
2023-03-20T06:28:20.423Z,35.34
2023-03-20T06:30:48.787Z,35.34
2023-03-20T06:33:17.292Z,35.38
2023-03-20T06:35:47.713Z,35.42
2023-03-20T06:38:16.242Z,35.39
2023-03-20T06:40:46.113Z,35.31
2023-03-20T06:43:14.413Z,35.27
2023-03-20T06:45:42.922Z,35.26
2023-03-20T06:48:12.188Z,35.18
2023-03-20T06:50:40.469Z,35.09
2023-03-20T06:53:08.756Z,35.04
2023-03-20T06:55:38.487Z,34.97
2023-03-20T06:58:06.923Z,35.05
2023-03-20T07:00:35.440Z,35.14
2023-03-20T07:03:04.653Z,35.26
2023-03-20T07:05:33.776Z,35.42
2023-03-20T07:08:02.329Z,35.54
2023-03-20T07:10:30.640Z,35.61
2023-03-20T07:12:59.001Z,35.66
2023-03-20T07:15:28.264Z,35.64
2023-03-20T07:17:56.905Z,35.58
2023-03-20T07:20:25.464Z,35.47
2023-03-20T07:22:53.824Z,35.31
2023-03-20T07:25:35.400Z,35.25
2023-03-20T07:28:03.960Z,35.24
2023-03-20T07:30:33.428Z,35.26
2023-03-20T07:33:01.749Z,35.29
2023-03-20T07:35:30.315Z,35.34
2023-03-20T07:37:58.612Z,35.36
2023-03-20T07:40:27.183Z,35.38
2023-03-20T07:42:55.579Z,35.39
2023-03-20T07:45:24.172Z,35.42
2023-03-20T07:47:52.509Z,35.42
2023-03-20T07:50:20.932Z,35.41
2023-03-20T07:52:50.380Z,35.41
2023-03-20T07:55:19.381Z,35.35
2023-03-20T07:57:50.666Z,35.30
2023-03-20T08:00:20.130Z,35.24
2023-03-20T08:02:48.653Z,35.18
2023-03-20T08:05:17.811Z,35.11
2023-03-20T08:07:47.142Z,35.04
2023-03-20T08:10:15.600Z,34.98
2023-03-20T08:12:44.402Z,34.99
2023-03-20T08:15:13.052Z,35.06
2023-03-20T08:17:45.612Z,35.14
2023-03-20T08:20:15.850Z,35.16
2023-03-20T08:22:46.246Z,35.19
2023-03-20T08:25:15.377Z,35.21
2023-03-20T08:27:43.882Z,35.23
2023-03-20T08:30:14.014Z,35.25
2023-03-20T08:32:43.038Z,35.24
2023-03-20T08:35:25.784Z,35.20
2023-03-20T08:38:00.445Z,35.13
2023-03-20T08:40:29.094Z,35.11
2023-03-20T08:42:57.614Z,35.08
2023-03-20T08:45:27.156Z,35.07
2023-03-20T08:47:56.017Z,35.05
2023-03-20T08:50:24.545Z,35.05
2023-03-20T08:52:52.937Z,35.01
2023-03-20T08:55:21.430Z,35.00
2023-03-20T08:57:49.890Z,34.99
2023-03-20T09:00:20.159Z,34.98
2023-03-20T09:02:48.574Z,35.00
2023-03-20T09:05:17.062Z,34.99
2023-03-20T09:07:45.882Z,34.99
2023-03-20T09:10:14.359Z,34.99
2023-03-20T09:12:42.688Z,34.97
2023-03-20T09:15:11.629Z,34.97
2023-03-20T09:17:40.122Z,34.95
2023-03-20T09:20:09.271Z,34.94
2023-03-20T09:22:37.643Z,34.89
2023-03-20T09:25:07.181Z,34.88
2023-03-20T09:27:35.557Z,34.87
2023-03-20T09:30:03.876Z,34.85
2023-03-20T09:32:32.182Z,34.78
2023-03-20T09:35:00.613Z,34.72
2023-03-20T09:37:29.256Z,34.64
2023-03-20T09:39:57.811Z,34.57
2023-03-20T09:42:50.878Z,34.49
2023-03-20T09:45:38.650Z,34.45
2023-03-20T09:48:09.753Z,34.42
2023-03-20T09:50:41.285Z,34.38
2023-03-20T09:53:43.642Z,34.33
2023-03-20T09:56:22.900Z,34.28
2023-03-20T09:59:00.245Z,34.25
2023-03-20T10:01:34.743Z,34.21
2023-03-20T10:04:13.558Z,34.16
2023-03-20T10:06:42.220Z,34.09
2023-03-20T10:09:32.764Z,34.01
2023-03-20T10:12:05.008Z,33.96
2023-03-20T10:14:39.048Z,33.88
2023-03-20T10:17:16.378Z,33.81
2023-03-20T10:19:57.428Z,33.74
2023-03-20T10:22:34.306Z,33.66
2023-03-20T10:25:14.566Z,33.61
2023-03-20T10:28:01.873Z,33.57
2023-03-20T10:31:07.430Z,33.51
2023-03-20T10:33:53.959Z,33.44
2023-03-20T10:36:22.614Z,33.40
2023-03-20T10:38:50.875Z,33.37
2023-03-20T10:41:23.246Z,33.32
2023-03-20T10:43:54.095Z,33.29
2023-03-20T10:46:30.684Z,33.24
2023-03-20T10:49:09.712Z,33.18
2023-03-20T10:51:49.362Z,33.11
2023-03-20T10:54:30.250Z,33.03
2023-03-20T10:57:01.849Z,32.97
2023-03-20T10:59:36.364Z,32.89
2023-03-20T11:02:15.758Z,32.82
2023-03-20T11:04:44.596Z,32.73
2023-03-20T11:07:49.155Z,32.64
2023-03-20T11:10:18.264Z,32.54
2023-03-20T11:12:49.219Z,32.45
2023-03-20T11:15:23.953Z,32.36
2023-03-20T11:17:56.996Z,32.28
2023-03-20T11:20:27.153Z,32.20
2023-03-20T11:23:05.877Z,32.11
2023-03-20T11:25:40.829Z,32.03
2023-03-20T11:28:23.038Z,31.94
2023-03-20T11:31:04.625Z,31.88
2023-03-20T11:33:38.827Z,31.80
2023-03-20T11:36:14.274Z,31.73
2023-03-20T11:38:47.462Z,31.65
2023-03-20T11:41:23.831Z,31.58
2023-03-20T11:43:52.246Z,31.51
2023-03-20T11:46:26.291Z,31.42
2023-03-20T11:49:08.417Z,31.36
2023-03-20T11:51:39.105Z,31.31
2023-03-20T11:54:15.927Z,31.24
2023-03-20T11:56:58.332Z,31.18
2023-03-20T11:59:37.031Z,31.10
2023-03-20T12:02:20.564Z,31.04
2023-03-20T12:04:48.944Z,30.96
2023-03-20T12:07:29.168Z,30.90
2023-03-20T12:10:08.305Z,30.83
2023-03-20T12:12:48.739Z,30.75
2023-03-20T12:15:35.236Z,30.70
2023-03-20T12:18:34.070Z,30.65
2023-03-20T12:21:12.503Z,30.58
2023-03-20T12:23:54.435Z,30.52
2023-03-20T12:27:00.107Z,30.44
2023-03-20T12:29:44.809Z,30.38
2023-03-20T12:32:33.753Z,30.33
2023-03-20T12:35:18.962Z,30.29
2023-03-20T12:37:47.426Z,30.25
2023-03-20T12:40:22.864Z,30.21
2023-03-20T12:43:06.885Z,30.16
2023-03-20T12:45:44.721Z,30.11
2023-03-20T12:48:36.624Z,30.06
2023-03-20T12:51:08.967Z,30.00
2023-03-20T12:53:46.061Z,29.96
2023-03-20T12:56:25.550Z,29.91
2023-03-20T12:59:05.634Z,29.86
2023-03-20T13:01:56.667Z,29.81
2023-03-20T13:04:42.912Z,29.76
2023-03-20T13:07:25.091Z,29.73
2023-03-20T13:10:10.176Z,29.68
2023-03-20T13:12:53.356Z,29.65
2023-03-20T13:15:43.224Z,29.61
2023-03-20T13:18:21.440Z,29.56
2023-03-20T13:21:05.110Z,29.51
2023-03-20T13:23:52.967Z,29.45
2023-03-20T13:26:39.840Z,29.39
2023-03-20T13:29:08.126Z,29.35
2023-03-20T13:31:45.427Z,29.30
2023-03-20T13:34:54.364Z,29.25
2023-03-20T13:37:34.354Z,29.19
2023-03-20T13:40:02.637Z,29.15
2023-03-20T13:42:39.109Z,29.11
2023-03-20T13:45:23.606Z,29.04
2023-03-20T13:47:53.784Z,28.99
2023-03-20T13:50:53.650Z,28.93
2023-03-20T13:53:31.583Z,28.90
2023-03-20T13:56:26.207Z,28.87
2023-03-20T13:59:04.628Z,28.81
2023-03-20T14:01:44.266Z,28.77
2023-03-20T14:04:20.048Z,28.73
2023-03-20T14:06:58.830Z,28.69
2023-03-20T14:09:33.819Z,28.66
2023-03-20T14:12:12.104Z,28.64
2023-03-20T14:14:51.148Z,28.61
2023-03-20T14:17:24.860Z,28.57
2023-03-20T14:19:55.330Z,28.53
2023-03-20T14:22:35.741Z,28.49
2023-03-20T14:25:18.648Z,28.47
2023-03-20T14:28:14.537Z,28.43
2023-03-20T14:30:53.897Z,28.43
2023-03-20T14:33:23.516Z,28.43
2023-03-20T14:36:12.155Z,28.40
2023-03-20T14:39:03.783Z,28.39
2023-03-20T14:41:55.797Z,28.36
2023-03-20T14:44:26.728Z,28.34
2023-03-20T14:46:54.972Z,28.31
2023-03-20T14:49:37.742Z,28.26
2023-03-20T14:52:34.865Z,28.22
2023-03-20T14:55:21.798Z,28.18
2023-03-20T14:57:56.637Z,28.15
2023-03-20T15:00:29.471Z,28.13
2023-03-20T15:03:12.810Z,28.11
2023-03-20T15:05:41.950Z,28.09
2023-03-20T15:08:16.900Z,28.09
2023-03-20T15:10:54.535Z,28.06
2023-03-20T15:13:25.666Z,28.02
2023-03-20T15:16:05.586Z,27.99
2023-03-20T15:18:39.378Z,27.98
2023-03-20T15:21:19.604Z,27.96
2023-03-20T15:23:49.368Z,27.94
2023-03-20T15:26:21.149Z,27.94
2023-03-20T15:28:50.393Z,27.92
2023-03-20T15:31:39.993Z,27.90
2023-03-20T15:34:14.319Z,27.89
2023-03-20T15:36:42.772Z,27.84
2023-03-20T15:39:20.926Z,27.82
2023-03-20T15:41:54.121Z,27.80
2023-03-20T15:44:24.062Z,27.76
2023-03-20T15:46:56.547Z,27.73
2023-03-20T15:49:26.053Z,27.70
2023-03-20T15:51:57.232Z,27.68
2023-03-20T15:54:26.194Z,27.66
2023-03-20T15:56:58.499Z,27.65
2023-03-20T15:59:31.461Z,27.63
2023-03-20T16:02:02.019Z,27.62
2023-03-20T16:04:30.535Z,27.61
2023-03-20T16:07:01.700Z,27.60
2023-03-20T16:09:30.661Z,27.59
2023-03-20T16:12:00.354Z,27.56
2023-03-20T16:14:32.586Z,27.54
2023-03-20T16:17:04.671Z,27.51
2023-03-20T16:19:33.130Z,27.48
2023-03-20T16:22:11.275Z,27.46
2023-03-20T16:24:41.678Z,27.45
2023-03-20T16:27:11.744Z,27.45
2023-03-20T16:29:44.900Z,27.45
2023-03-20T16:32:33.968Z,27.45
2023-03-20T16:35:07.461Z,27.43
2023-03-20T16:37:44.701Z,27.39
2023-03-20T16:40:19.902Z,27.35
2023-03-20T16:42:48.844Z,27.32
2023-03-20T16:45:26.891Z,27.30
2023-03-20T16:48:12.185Z,27.28
2023-03-20T16:50:42.913Z,27.26
2023-03-20T16:53:18.272Z,27.25
2023-03-20T16:55:52.633Z,27.23
2023-03-20T16:58:28.673Z,27.20
2023-03-20T17:01:07.248Z,27.15
2023-03-20T17:03:49.166Z,27.11
2023-03-20T17:06:21.750Z,27.07
2023-03-20T17:08:55.769Z,27.04
2023-03-20T17:11:38.917Z,27.01
2023-03-20T17:14:07.564Z,26.98
2023-03-20T17:16:37.510Z,26.94
2023-03-20T17:19:11.980Z,26.91
2023-03-20T17:21:40.421Z,26.87
2023-03-20T17:24:08.958Z,26.86
2023-03-20T17:26:37.358Z,26.84
2023-03-20T17:29:06.834Z,26.81
2023-03-20T17:31:35.178Z,26.78
2023-03-20T17:34:03.596Z,26.77
2023-03-20T17:36:34.745Z,26.77
2023-03-20T17:39:03.391Z,26.76
2023-03-20T17:41:31.764Z,26.77
2023-03-20T17:44:00.099Z,26.76
2023-03-20T17:46:36.082Z,26.73
2023-03-20T17:49:16.926Z,26.72
2023-03-20T17:51:45.403Z,26.70
2023-03-20T17:54:13.704Z,26.69
2023-03-20T17:56:43.189Z,26.67
2023-03-20T17:59:15.307Z,26.66
2023-03-20T18:01:44.068Z,26.64
2023-03-20T18:04:12.480Z,26.62
2023-03-20T18:06:40.859Z,26.59
2023-03-20T18:09:14.247Z,26.57
2023-03-20T18:11:42.642Z,26.53
2023-03-20T18:14:13.159Z,26.51
2023-03-20T18:16:41.670Z,26.48
2023-03-20T18:19:30.801Z,26.45
2023-03-20T18:21:59.957Z,26.43
2023-03-20T18:24:28.720Z,26.43
2023-03-20T18:26:57.582Z,26.42
2023-03-20T18:29:26.126Z,26.41
2023-03-20T18:31:54.830Z,26.40
2023-03-20T18:34:23.122Z,26.40
2023-03-20T18:36:52.106Z,26.39
2023-03-20T18:39:23.197Z,26.39
2023-03-20T18:41:51.982Z,26.38
2023-03-20T18:44:20.291Z,26.39
2023-03-20T18:46:48.747Z,26.39
2023-03-20T18:49:18.732Z,26.38
2023-03-20T18:51:47.927Z,26.38
2023-03-20T18:54:16.363Z,26.38
2023-03-20T18:56:44.730Z,26.37
2023-03-20T18:59:14.236Z,26.35
2023-03-20T19:01:42.659Z,26.33
2023-03-20T19:04:11.176Z,26.31
2023-03-20T19:06:39.627Z,26.26
2023-03-20T19:09:09.106Z,26.26
2023-03-20T19:11:37.410Z,26.23
2023-03-20T19:14:05.741Z,26.21
2023-03-20T19:16:38.789Z,26.19
2023-03-20T19:19:08.845Z,26.18
2023-03-20T19:21:37.703Z,26.18
2023-03-20T19:24:07.675Z,26.19
2023-03-20T19:26:38.309Z,26.20
2023-03-20T19:29:09.400Z,26.21
2023-03-20T19:31:38.407Z,26.22
2023-03-20T19:34:07.612Z,26.23
2023-03-20T19:36:38.585Z,26.24
2023-03-20T19:39:12.135Z,26.26
2023-03-20T19:41:40.572Z,26.28
2023-03-20T19:44:09.467Z,26.29
2023-03-20T19:46:41.097Z,26.30
2023-03-20T19:49:20.765Z,26.29
2023-03-20T19:51:50.684Z,26.27
2023-03-20T19:54:19.069Z,26.24
2023-03-20T19:56:47.501Z,26.21
2023-03-20T19:59:16.861Z,26.17
2023-03-20T20:01:46.500Z,26.15
2023-03-20T20:04:15.791Z,26.14
2023-03-20T20:06:47.266Z,26.12
2023-03-20T20:09:16.241Z,26.10
2023-03-20T20:11:45.033Z,26.08
2023-03-20T20:14:14.852Z,26.07
2023-03-20T20:16:44.183Z,26.03
2023-03-20T20:19:13.278Z,25.99
2023-03-20T20:24:30.120Z,25.93
2023-03-20T20:27:26.895Z,25.90
2023-03-20T20:29:52.167Z,25.87
2023-03-20T20:32:23.895Z,25.86
2023-03-20T20:40:33.340Z,25.86
2023-03-20T20:43:02.925Z,25.84
2023-03-20T20:45:32.438Z,25.83
2023-03-20T20:48:00.908Z,25.82
2023-03-20T20:50:31.647Z,25.82
2023-03-20T20:53:00.446Z,25.79
2023-03-20T20:55:28.803Z,25.76
2023-03-20T20:57:57.457Z,25.76
2023-03-20T21:00:41.020Z,25.75
2023-03-20T21:03:15.471Z,25.74
2023-03-20T21:05:44.305Z,25.74
2023-03-20T21:08:14.889Z,25.72
2023-03-20T21:10:45.533Z,25.71
2023-03-20T21:13:14.076Z,25.70
2023-03-20T21:15:44.185Z,25.67
2023-03-20T21:18:12.650Z,25.66
2023-03-20T21:20:41.036Z,25.65
2023-03-20T21:23:09.357Z,25.62
2023-03-20T21:25:42.074Z,25.61
2023-03-20T21:28:11.682Z,25.57
2023-03-20T21:30:59.984Z,25.54
2023-03-20T21:33:33.157Z,25.51
2023-03-20T21:36:01.623Z,25.49
2023-03-20T21:39:01.913Z,25.47
2023-03-20T21:41:19.084Z,25.45
2023-03-20T21:43:48.323Z,25.42
2023-03-20T22:01:23.152Z,25.29
2023-03-20T22:30:12.372Z,25.18
2023-03-20T22:41:43.129Z,25.11
2023-03-20T22:46:44.766Z,25.09
2023-03-20T22:49:10.790Z,25.07
2023-03-20T22:51:52.243Z,25.07
2023-03-20T22:54:27.508Z,25.06
2023-03-20T22:56:56.451Z,25.06
2023-03-20T22:59:24.832Z,25.04
2023-03-20T23:01:53.156Z,25.01
2023-03-20T23:04:21.717Z,25.01
2023-03-20T23:06:50.114Z,25.01
2023-03-20T23:09:18.844Z,25.00
2023-03-20T23:11:47.223Z,25.01
2023-03-20T23:14:21.335Z,25.01
2023-03-20T23:16:51.790Z,24.98
2023-03-20T23:19:20.272Z,24.97
2023-03-20T23:21:48.678Z,24.95
2023-03-20T23:24:17.892Z,24.95
2023-03-20T23:26:46.354Z,24.94
2023-03-20T23:29:14.746Z,24.94
2023-03-20T23:31:43.121Z,24.91
2023-03-20T23:34:11.602Z,24.90
2023-03-20T23:36:40.083Z,24.89
2023-03-20T23:39:10.485Z,24.90
2023-03-20T23:44:28.310Z,24.90
2023-03-20T23:46:56.718Z,24.92
2023-03-20T23:49:25.242Z,24.96
2023-03-20T23:51:54.075Z,24.96
2023-03-20T23:54:22.619Z,25.00
2023-03-20T23:56:50.972Z,25.05
2023-03-20T23:59:22.485Z,25.07
